createdAt,value
2022-10-01T00:00:50.425Z,100395.12
2022-10-01T00:03:53.252Z,100379.16
2022-10-01T00:06:55.308Z,100365.31
2022-10-01T00:09:57.493Z,100358.91
2022-10-01T00:12:59.430Z,100360.88
2022-10-01T00:16:04.554Z,100380.53
2022-10-01T00:19:06.477Z,100464.81
2022-10-01T00:22:08.658Z,100486.38
2022-10-01T00:25:10.550Z,100377.56
2022-10-01T00:28:12.761Z,100337.66
2022-10-01T00:31:15.880Z,100371.38
2022-10-01T00:34:18.188Z,100370.38
2022-10-01T00:37:20.745Z,100377.59
2022-10-01T00:40:23.803Z,100378.31
2022-10-01T00:43:27.046Z,100373.56
2022-10-01T00:46:36.388Z,100369.81
2022-10-01T00:49:38.829Z,100369.44
2022-10-01T00:52:41.966Z,100366.50
2022-10-01T00:55:46.032Z,100365.34
2022-10-01T00:58:48.773Z,100361.00
2022-10-01T01:01:50.920Z,100364.09
2022-10-01T01:04:53.173Z,100371.25
2022-10-01T01:07:55.041Z,100369.75
2022-10-01T01:10:57.173Z,100370.47
2022-10-01T01:14:17.938Z,100368.31
2022-10-01T01:17:25.724Z,100367.78
2022-10-01T01:20:31.081Z,100366.50
2022-10-01T01:23:54.643Z,100355.09
2022-10-01T01:27:16.192Z,100366.19
2022-10-01T01:30:18.928Z,100366.03
2022-10-01T01:33:22.795Z,100371.22
2022-10-01T01:36:32.073Z,100381.03
2022-10-01T01:39:34.525Z,100382.84
2022-10-01T01:42:40.160Z,100380.06
2022-10-01T01:45:42.930Z,100369.28
2022-10-01T01:48:49.443Z,100385.31
2022-10-01T01:51:51.285Z,100382.66
2022-10-01T01:54:54.379Z,100380.97
2022-10-01T01:57:56.811Z,100367.97
2022-10-01T02:00:59.055Z,100361.63
2022-10-01T02:04:04.402Z,100353.38
2022-10-01T02:07:23.991Z,100365.66
2022-10-01T02:10:32.183Z,100356.44
2022-10-01T02:13:42.381Z,100346.44
2022-10-01T02:16:45.533Z,100339.69
2022-10-01T02:19:56.314Z,100335.91
2022-10-01T02:23:06.145Z,100341.31
2022-10-01T02:26:15.110Z,100350.34
2022-10-01T02:29:19.686Z,100361.56
2022-10-01T02:32:21.920Z,100373.44
2022-10-01T02:35:24.357Z,100369.28
2022-10-01T02:38:26.388Z,100371.88
2022-10-01T02:41:34.969Z,100353.38
2022-10-01T02:44:40.269Z,100365.13
2022-10-01T02:47:46.745Z,100377.44
2022-10-01T02:50:51.973Z,100366.28
2022-10-01T02:54:23.400Z,100374.28
2022-10-01T02:57:29.499Z,100367.22
2022-10-01T03:00:31.689Z,100375.13
2022-10-01T03:03:33.619Z,100382.38
2022-10-01T03:06:35.839Z,100374.78
2022-10-01T03:09:37.750Z,100385.19
2022-10-01T03:12:44.116Z,100380.63
2022-10-01T03:15:46.312Z,100362.06
2022-10-01T03:18:48.567Z,100361.81
2022-10-01T03:21:50.474Z,100364.75
2022-10-01T03:24:53.279Z,100364.69
2022-10-01T03:27:55.230Z,100367.84
2022-10-01T03:31:04.730Z,100368.97
2022-10-01T03:34:06.697Z,100385.63
2022-10-01T03:37:08.964Z,100390.81
2022-10-01T03:40:10.883Z,100404.13
2022-10-01T03:43:13.042Z,100432.69
2022-10-01T03:46:15.024Z,100404.13
2022-10-01T03:49:17.319Z,100415.63
2022-10-01T03:52:19.787Z,100415.09
2022-10-01T03:55:21.946Z,100412.78
2022-10-01T03:58:23.939Z,100399.28
2022-10-01T04:01:26.404Z,100398.00
2022-10-01T04:04:29.001Z,100384.53
2022-10-01T04:07:31.095Z,100375.25
2022-10-01T04:10:33.462Z,100368.19
2022-10-01T04:13:35.649Z,100359.75
2022-10-01T04:16:37.875Z,100364.22
2022-10-01T04:19:39.825Z,100368.81
2022-10-01T04:22:42.812Z,100367.00
2022-10-01T04:25:44.789Z,100362.41
2022-10-01T04:28:47.515Z,100355.25
2022-10-01T04:31:49.435Z,100364.47
2022-10-01T04:34:54.751Z,100363.91
2022-10-01T04:38:01.923Z,100363.91
2022-10-01T04:41:04.169Z,100365.84
2022-10-01T04:44:06.097Z,100360.97
2022-10-01T04:47:08.625Z,100355.31
2022-10-01T04:50:10.604Z,100357.06
2022-10-01T04:53:12.849Z,100377.41
2022-10-01T04:56:14.723Z,100365.06
2022-10-01T04:59:16.979Z,100364.66
2022-10-01T05:02:18.990Z,100362.25
2022-10-01T05:05:23.372Z,100373.56
2022-10-01T05:08:25.300Z,100369.66
2022-10-01T05:11:27.549Z,100379.47
2022-10-01T05:14:29.464Z,100386.47
2022-10-01T05:17:33.107Z,100391.94
2022-10-01T05:20:35.051Z,100421.09
2022-10-01T05:23:37.506Z,100439.44
2022-10-01T05:26:39.416Z,100438.06
2022-10-01T05:29:41.969Z,100423.87
2022-10-01T05:32:53.081Z,100412.41
2022-10-01T05:35:56.195Z,100413.09
2022-10-01T05:38:58.104Z,100415.25
2022-10-01T05:42:06.134Z,100404.59
2022-10-01T05:45:10.082Z,100389.31
2022-10-01T05:48:12.831Z,100392.38
2022-10-01T05:51:16.131Z,100391.28
2022-10-01T05:54:19.513Z,100396.31
2022-10-01T05:57:21.564Z,100389.75
2022-10-01T06:00:24.161Z,100397.22
2022-10-01T06:03:28.804Z,100389.56
2022-10-01T06:06:30.704Z,100387.75
2022-10-01T06:09:32.903Z,100385.47
2022-10-01T06:12:34.792Z,100376.31
2022-10-01T06:15:38.334Z,100371.91
2022-10-01T06:18:40.670Z,100357.12
2022-10-01T06:21:42.862Z,100355.34
2022-10-01T06:24:44.803Z,100352.47
2022-10-01T06:27:55.485Z,100344.72
2022-10-01T06:31:00.624Z,100340.97
2022-10-01T06:34:02.808Z,100347.41
2022-10-01T06:37:04.735Z,100374.19
2022-10-01T06:40:07.372Z,100386.22
2022-10-01T06:43:09.557Z,100389.16
2022-10-01T06:46:11.801Z,100389.47
2022-10-01T06:49:13.881Z,100371.78
2022-10-01T06:52:34.506Z,100371.53
2022-10-01T06:55:37.103Z,100370.28
2022-10-01T06:58:39.294Z,100371.12
2022-10-01T07:01:41.269Z,100385.59
2022-10-01T07:04:43.528Z,100387.72
2022-10-01T07:07:45.439Z,100386.34
2022-10-01T07:10:47.632Z,100390.69
2022-10-01T07:13:54.399Z,100383.25
2022-10-01T07:16:56.946Z,100368.94
2022-10-01T07:19:58.860Z,100367.13
2022-10-01T07:23:01.629Z,100363.19
2022-10-01T07:26:04.348Z,100361.38
2022-10-01T07:29:06.959Z,100347.06
2022-10-01T07:32:10.389Z,100354.75
2022-10-01T07:35:12.734Z,100359.91
2022-10-01T07:38:14.758Z,100356.84
2022-10-01T07:41:17.838Z,100349.59
2022-10-01T07:44:20.111Z,100344.66
2022-10-01T07:47:22.340Z,100337.22
2022-10-01T07:50:25.290Z,100329.22
2022-10-01T07:53:28.131Z,100343.69
2022-10-01T07:56:30.072Z,100359.69
2022-10-01T07:59:33.166Z,100350.13
2022-10-01T08:02:36.103Z,100351.41
2022-10-01T08:05:40.390Z,100349.31
2022-10-01T08:08:42.324Z,100340.91
2022-10-01T08:11:45.525Z,100345.63
2022-10-01T08:14:47.882Z,100349.25
2022-10-01T08:17:50.097Z,100332.97
2022-10-01T08:20:52.486Z,100339.13
2022-10-01T08:23:54.705Z,100335.44
2022-10-01T08:26:57.445Z,100345.28
2022-10-01T08:29:59.620Z,100348.63
2022-10-01T08:33:02.137Z,100348.31
2022-10-01T08:36:07.955Z,100345.28
2022-10-01T08:39:11.471Z,100329.00
2022-10-01T08:42:15.338Z,100325.44
2022-10-01T08:45:23.178Z,100308.91
2022-10-01T08:48:57.123Z,100313.16
2022-10-01T08:52:06.345Z,100314.16
2022-10-01T08:55:16.750Z,100304.97
2022-10-01T08:58:23.705Z,100297.75
2022-10-01T09:01:26.467Z,100303.97
2022-10-01T09:04:29.137Z,100296.81
2022-10-01T09:07:40.542Z,100300.06
2022-10-01T09:10:47.094Z,100292.22
2022-10-01T09:14:07.204Z,100290.50
2022-10-01T09:17:16.028Z,100305.78
2022-10-01T09:20:25.886Z,100298.81
2022-10-01T09:23:32.086Z,100300.00
2022-10-01T09:26:36.509Z,100305.34
2022-10-01T09:29:57.266Z,100298.88
2022-10-01T09:33:04.782Z,100296.31
2022-10-01T09:36:18.590Z,100293.84
2022-10-01T09:39:27.057Z,100284.66
2022-10-01T09:42:29.623Z,100282.16
2022-10-01T09:45:31.882Z,100278.19
2022-10-01T09:48:39.743Z,100279.91
2022-10-01T09:51:45.578Z,100293.19
2022-10-01T09:54:52.478Z,100278.13
2022-10-01T09:58:21.021Z,100277.59
2022-10-01T10:01:26.737Z,100277.34
2022-10-01T10:04:28.866Z,100259.16
2022-10-01T10:07:32.565Z,100266.84
2022-10-01T10:10:36.910Z,100255.59
2022-10-01T10:13:49.098Z,100260.16
2022-10-01T10:16:51.284Z,100244.56
2022-10-01T10:19:53.265Z,100233.19
2022-10-01T10:23:05.573Z,100242.22
2022-10-01T10:26:07.526Z,100240.72
2022-10-01T10:29:25.994Z,100228.50
2022-10-01T10:32:28.563Z,100234.69
2022-10-01T10:35:33.999Z,100234.81
2022-10-01T10:38:35.949Z,100233.69
2022-10-01T10:41:43.678Z,100233.63
2022-10-01T10:44:46.867Z,100229.69
2022-10-01T10:47:51.431Z,100216.28
2022-10-01T10:50:58.276Z,100216.16
2022-10-01T10:54:00.738Z,100211.53
2022-10-01T10:57:05.266Z,100209.44
2022-10-01T11:00:14.134Z,100205.59
2022-10-01T11:03:17.746Z,100194.88
2022-10-01T11:06:20.356Z,100194.31
2022-10-01T11:09:23.546Z,100193.63
2022-10-01T11:12:29.219Z,100185.91
2022-10-01T11:15:31.132Z,100185.87
2022-10-01T11:18:51.625Z,100180.72
2022-10-01T11:22:00.698Z,100157.41
2022-10-01T11:25:02.918Z,100152.47
2022-10-01T11:28:04.931Z,100142.28
2022-10-01T11:31:13.619Z,100135.56
2022-10-01T11:34:48.582Z,100130.72
2022-10-01T11:37:50.742Z,100129.56
2022-10-01T11:41:04.689Z,100121.47
2022-10-01T11:44:22.369Z,100122.13
2022-10-01T11:47:40.798Z,100112.97
2022-10-01T11:50:46.170Z,100099.81
2022-10-01T11:53:52.013Z,100094.16
2022-10-01T11:57:13.795Z,100090.25
2022-10-01T12:00:16.935Z,100094.28
2022-10-01T12:03:23.596Z,100097.34
2022-10-01T12:06:41.163Z,100089.16
2022-10-01T12:09:55.745Z,100079.78
2022-10-01T12:13:02.829Z,100086.06
2022-10-01T12:16:23.927Z,100075.78
2022-10-01T12:19:28.751Z,100079.44
2022-10-01T12:22:32.631Z,100073.97
2022-10-01T12:25:57.063Z,100067.28
2022-10-01T12:29:09.962Z,100077.41
2022-10-01T12:32:14.622Z,100073.03
2022-10-01T12:35:35.365Z,100069.72
2022-10-01T12:38:40.410Z,100062.47
2022-10-01T12:42:03.129Z,100070.31
2022-10-01T12:45:12.673Z,100072.13
2022-10-01T12:48:18.002Z,100072.59
2022-10-01T12:51:39.113Z,100073.34
2022-10-01T12:54:50.319Z,100071.03
2022-10-01T12:57:59.442Z,100062.69
2022-10-01T13:01:15.228Z,100053.31
2022-10-01T13:04:23.914Z,100046.06
2022-10-01T13:07:46.884Z,100027.84
2022-10-01T13:10:51.807Z,100011.66
2022-10-01T13:13:55.557Z,100011.69
2022-10-01T13:17:00.593Z,100008.09
2022-10-01T13:20:05.948Z,100010.00
2022-10-01T13:23:23.413Z,100003.75
2022-10-01T13:26:28.575Z,99994.16
2022-10-01T13:29:49.216Z,99998.16
2022-10-01T13:33:15.846Z,99992.03
2022-10-01T13:36:28.039Z,99990.16
2022-10-01T13:39:36.589Z,99986.47
2022-10-01T13:42:43.570Z,99976.19
2022-10-01T13:45:46.929Z,99973.19
2022-10-01T13:48:49.615Z,99956.53
2022-10-01T13:51:52.609Z,99956.72
2022-10-01T13:54:55.666Z,99946.56
2022-10-01T13:58:19.501Z,99962.19
2022-10-01T14:01:24.300Z,99963.91
2022-10-01T14:04:34.575Z,99970.22
2022-10-01T14:07:38.313Z,99973.19
2022-10-01T14:11:18.852Z,99962.28
2022-10-01T14:14:42.381Z,99969.87
2022-10-01T14:17:45.969Z,99964.72
2022-10-01T14:20:56.178Z,99964.56
2022-10-01T14:24:03.009Z,99966.06
2022-10-01T14:27:12.654Z,99961.06
2022-10-01T14:30:16.865Z,99961.72
2022-10-01T14:33:24.505Z,99965.31
2022-10-01T14:36:45.198Z,99965.38
2022-10-01T14:39:47.180Z,99962.44
2022-10-01T14:43:03.757Z,99954.41
2022-10-01T14:46:06.832Z,99950.44
2022-10-01T14:49:24.297Z,99949.59
2022-10-01T14:52:31.451Z,99946.09
2022-10-01T14:55:34.694Z,99945.53
2022-10-01T14:58:39.242Z,99936.34
2022-10-01T15:01:41.439Z,99938.06
2022-10-01T15:04:47.553Z,99938.41
2022-10-01T15:07:49.795Z,99939.59
2022-10-01T15:10:54.493Z,99946.97
2022-10-01T15:14:01.205Z,99955.50
2022-10-01T15:17:06.423Z,99953.50
2022-10-01T15:20:11.373Z,99947.66
2022-10-01T15:23:13.605Z,99960.03
2022-10-01T15:26:19.198Z,99969.75
2022-10-01T15:29:21.155Z,99974.94
2022-10-01T15:32:24.172Z,99979.09
2022-10-01T15:35:26.242Z,99987.81
2022-10-01T15:38:32.347Z,99986.25
2022-10-01T15:41:34.380Z,99992.06
2022-10-01T15:44:38.535Z,99986.19
2022-10-01T15:47:49.274Z,99983.97
2022-10-01T15:50:56.616Z,99976.59
2022-10-01T15:54:06.849Z,99974.59
2022-10-01T15:57:10.261Z,99986.44
2022-10-01T16:00:41.508Z,99984.34
2022-10-01T16:04:00.683Z,99984.03
2022-10-01T16:07:02.590Z,99989.44
2022-10-01T16:10:25.392Z,99990.06
2022-10-01T16:13:40.449Z,99996.06
2022-10-01T16:16:42.709Z,99987.41
2022-10-01T16:19:45.558Z,99980.03
2022-10-01T16:22:47.854Z,99980.78
2022-10-01T16:25:49.751Z,99984.03
2022-10-01T16:29:00.194Z,99996.03
2022-10-01T16:32:02.614Z,99998.69
2022-10-01T16:35:14.114Z,99996.00
2022-10-01T16:38:16.293Z,100000.53
2022-10-01T16:41:23.292Z,100001.56
2022-10-01T16:44:25.338Z,100002.87
2022-10-01T16:47:27.644Z,100006.59
2022-10-01T16:50:30.071Z,100017.66
2022-10-01T16:53:32.376Z,100009.44
2022-10-01T16:56:34.316Z,99999.13
2022-10-01T16:59:36.618Z,100001.56
2022-10-01T17:02:38.492Z,99996.00
2022-10-01T17:05:41.166Z,99996.84
2022-10-01T17:08:43.081Z,99991.38
2022-10-01T17:11:46.332Z,99992.50
2022-10-01T17:14:48.188Z,99985.31
2022-10-01T17:17:50.354Z,100000.88
2022-10-01T17:20:52.278Z,99999.97
2022-10-01T17:23:54.601Z,99999.75
2022-10-01T17:26:56.507Z,99997.97
2022-10-01T17:29:58.685Z,99990.81
2022-10-01T17:33:01.130Z,99987.56
2022-10-01T17:36:06.084Z,99989.69
2022-10-01T17:39:07.976Z,99989.91
2022-10-01T17:42:10.190Z,99991.81
2022-10-01T17:45:13.366Z,99995.75
2022-10-01T17:48:18.861Z,99997.41
2022-10-01T17:51:23.772Z,99994.66
2022-10-01T17:54:26.122Z,100001.12
2022-10-01T17:57:28.033Z,99999.75
2022-10-01T18:00:30.239Z,100008.09
2022-10-01T18:03:32.415Z,100007.75
2022-10-01T18:06:34.514Z,100009.13
2022-10-01T18:09:36.876Z,100020.16
2022-10-01T18:12:39.127Z,100015.41
2022-10-01T18:15:41.316Z,100024.97
2022-10-01T18:22:14.214Z,100019.06
2022-10-01T18:25:16.717Z,100032.97
2022-10-01T18:28:19.028Z,100048.69
2022-10-01T18:31:28.653Z,100061.19
2022-10-01T18:34:39.643Z,100071.72
2022-10-01T18:37:43.767Z,100072.97
2022-10-01T18:40:49.914Z,100071.28
2022-10-01T18:43:51.840Z,100078.31
2022-10-01T18:47:09.186Z,100090.09
2022-10-01T18:50:11.174Z,100081.09
2022-10-01T18:53:16.131Z,100082.75
2022-10-01T18:56:18.016Z,100078.28
2022-10-01T18:59:23.273Z,100074.91
2022-10-01T19:02:33.884Z,100076.19
2022-10-01T19:05:36.083Z,100087.13
2022-10-01T19:08:37.925Z,100078.84
2022-10-01T19:11:51.709Z,100070.69
2022-10-01T19:14:56.505Z,100089.75
2022-10-01T19:18:09.351Z,100086.50
2022-10-01T19:21:17.488Z,100090.16
2022-10-01T19:24:35.136Z,100089.16
2022-10-01T19:27:42.923Z,100085.06
2022-10-01T19:31:03.830Z,100093.88
2022-10-01T19:34:22.480Z,100097.69
2022-10-01T19:37:31.062Z,100097.53
2022-10-01T19:40:53.232Z,100093.09
2022-10-01T19:43:58.924Z,100093.41
2022-10-01T19:47:16.350Z,100097.34
2022-10-01T19:50:21.100Z,100103.25
2022-10-01T19:53:26.077Z,100099.47
2022-10-01T19:56:30.217Z,100100.84
2022-10-01T19:59:32.135Z,100107.72
2022-10-01T20:02:40.164Z,100107.72
2022-10-01T20:05:56.780Z,100101.66
2022-10-01T20:09:18.878Z,100111.19
2022-10-01T20:12:28.354Z,100110.09
2022-10-01T20:15:48.998Z,100113.09
2022-10-01T20:18:54.494Z,100115.91
2022-10-01T20:22:22.418Z,100114.63
2022-10-01T20:25:33.936Z,100121.22
2022-10-01T20:28:52.195Z,100128.25
2022-10-01T20:32:13.297Z,100124.41
2022-10-01T20:35:32.437Z,100131.53
2022-10-01T20:38:48.872Z,100127.78
2022-10-01T20:41:53.959Z,100128.31
2022-10-01T20:44:56.281Z,100126.09
2022-10-01T20:48:01.436Z,100131.13
2022-10-01T20:51:06.784Z,100145.47
2022-10-01T20:54:24.344Z,100142.66
2022-10-01T20:57:34.438Z,100157.12
2022-10-01T21:00:37.475Z,100163.88
2022-10-01T21:03:44.176Z,100170.22
2022-10-01T21:06:50.453Z,100182.47
2022-10-01T21:09:54.246Z,100190.56
2022-10-01T21:12:59.679Z,100199.44
2022-10-01T21:16:05.091Z,100194.28
2022-10-01T21:19:15.975Z,100199.19
2022-10-01T21:22:18.106Z,100188.94
2022-10-01T21:25:35.358Z,100190.19
2022-10-01T21:28:37.486Z,100207.88
2022-10-01T21:31:43.799Z,100211.38
2022-10-01T21:35:01.889Z,100211.50
2022-10-01T21:38:19.254Z,100220.09
2022-10-01T21:41:30.455Z,100218.34
2022-10-01T21:44:41.566Z,100225.62
2022-10-01T21:47:46.463Z,100218.84
2022-10-01T21:50:48.310Z,100220.66
2022-10-01T21:53:56.604Z,100223.44
2022-10-01T21:57:10.407Z,100212.59
2022-10-01T22:00:21.662Z,100209.03
2022-10-01T22:03:42.126Z,100215.50
2022-10-01T22:06:58.426Z,100211.75
2022-10-01T22:10:08.324Z,100210.72
2022-10-01T22:13:19.005Z,100213.75
2022-10-01T22:16:22.873Z,100228.66
2022-10-01T22:19:29.685Z,100219.22
2022-10-01T22:22:35.605Z,100207.59
2022-10-01T22:25:42.825Z,100204.41
2022-10-01T22:28:47.734Z,100205.34
2022-10-01T22:31:51.585Z,100199.06
2022-10-01T22:34:58.824Z,100211.72
2022-10-01T22:38:20.973Z,100215.59
2022-10-01T22:41:42.873Z,100213.00
2022-10-01T22:44:44.862Z,100228.34
2022-10-01T22:48:05.924Z,100231.16
2022-10-01T22:51:07.954Z,100244.97
2022-10-01T22:54:13.648Z,100243.66
2022-10-01T22:57:21.610Z,100244.22
2022-10-01T23:00:23.920Z,100256.19
2022-10-01T23:03:44.778Z,100259.41
2022-10-01T23:06:52.993Z,100271.19
2022-10-01T23:10:15.326Z,100258.63
2022-10-01T23:13:29.496Z,100268.16
2022-10-01T23:16:42.300Z,100263.03
2022-10-01T23:19:44.482Z,100258.75
2022-10-01T23:22:52.348Z,100259.28
2022-10-01T23:25:57.590Z,100249.50
2022-10-01T23:29:10.137Z,100254.72
2022-10-01T23:32:15.396Z,100248.38
2022-10-01T23:35:19.291Z,100254.34
2022-10-01T23:38:32.284Z,100239.75
2022-10-01T23:41:38.392Z,100249.41
2022-10-01T23:45:01.947Z,100249.22
2022-10-01T23:48:13.189Z,100244.81
2022-10-01T23:51:24.573Z,100258.97
2022-10-01T23:54:30.101Z,100256.44
2022-10-01T23:57:36.135Z,100267.59
